Time;durP1;ratioP1;P1;durP2;ratioP2;P2;SDS_P1;SDS_P2;PMS_P1;PMS_P2;Temp;Humidity;BMP_temperature;BMP_pressure;BME280_temperature;BME280_humidity;BME280_pressure;Samples;Min_cycle;Max_cycle;Signal;HPM_P1;HPM_P2
2021/09/23 00:00:36;;;;;;;6.20;3.00;;;;;;;7.45;80.87;99399.48;1724433;82;21549;-67
2021/09/23 00:03:10;;;;;;;5.28;3.45;;;;;;;7.47;80.92;99405.45;1711300;83;21529;-67
2021/09/23 00:05:32;;;;;;;5.62;3.20;;;;;;;7.46;80.99;99405.72;1710426;83;21121;-67
2021/09/23 00:08:00;;;;;;;4.87;3.40;;;;;;;7.44;81.08;99407.86;1717868;82;21024;-68
2021/09/23 00:10:31;;;;;;;5.03;2.85;;;;;;;7.50;81.04;99408.20;1715789;82;21087;-67
2021/09/23 00:12:58;;;;;;;4.33;3.15;;;;;;;7.53;80.89;99410.91;1694188;82;21020;-67
2021/09/23 00:15:25;;;;;;;;;;;;;;;7.50;80.86;99407.66;1719905;82;21059;-67
2021/09/23 00:17:59;;;;;;;5.00;3.47;;;;;;;7.44;81.11;99420.86;1717727;83;20119;-67
2021/09/23 00:20:31;;;;;;;6.08;3.20;;;;;;;7.34;81.44;99413.20;1704402;83;21111;-67
2021/09/23 00:22:58;;;;;;;4.67;3.50;;;;;;;7.39;81.37;99414.61;1709941;83;21067;-67
2021/09/23 00:25:26;;;;;;;6.53;2.90;;;;;;;7.42;81.24;99414.91;1712693;83;21059;-68
2021/09/23 00:27:54;;;;;;;4.83;2.95;;;;;;;7.44;81.09;99407.86;1717663;82;21541;-67
2021/09/23 00:30:22;;;;;;;6.17;3.60;;;;;;;7.38;81.29;99404.84;1688879;83;21603;-67
2021/09/23 00:32:51;;;;;;;6.35;2.98;;;;;;;7.36;81.42;99406.47;1687509;85;21043;-67
2021/09/23 00:35:18;;;;;;;5.12;2.77;;;;;;;7.41;81.41;99407.84;1714740;82;21481;-67
2021/09/23 00:37:46;;;;;;;4.70;3.05;;;;;;;7.48;81.35;99403.56;1723904;82;21866;-68
2021/09/23 00:40:14;;;;;;;3.92;2.95;;;;;;;7.53;81.35;99408.20;1718010;82;21023;-67
2021/09/23 00:42:41;;;;;;;4.10;2.85;;;;;;;7.55;81.42;99404.16;1725779;82;21575;-66
2021/09/23 00:45:09;;;;;;;4.03;2.80;;;;;;;7.55;81.46;99408.22;1724717;81;21082;-68
2021/09/23 00:47:38;;;;;;;5.12;2.83;;;;;;;7.49;81.48;99406.02;1694774;83;21385;-68
2021/09/23 00:50:05;;;;;;;6.90;3.40;;;;;;;7.55;81.37;99410.11;1677871;85;21549;-68
2021/09/23 00:52:37;;;;;;;6.22;3.22;;;;;;;7.48;81.29;99403.56;1677724;85;21545;-67
2021/09/23 00:55:06;;;;;;;6.83;3.95;;;;;;;7.39;81.66;99407.84;1709667;83;21019;-67
2021/09/23 00:57:33;;;;;;;5.30;3.10;;;;;;;7.38;81.75;99412.97;1717449;83;21038;-67
2021/09/23 00:59:59;;;;;;;5.60;3.67;;;;;;;7.40;81.78;99410.27;1711839;83;21083;-67
2021/09/23 01:02:27;;;;;;;4.50;3.20;;;;;;;7.43;81.75;99413.84;1712436;83;20971;-68
2021/09/23 01:04:55;;;;;;;4.42;3.42;;;;;;;7.36;81.76;99410.53;1710749;82;21106;-67
2021/09/23 01:07:21;;;;;;;6.28;3.10;;;;;;;7.30;81.98;99408.84;1723649;83;21057;-67
2021/09/23 01:09:52;;;;;;;6.92;3.40;;;;;;;7.36;81.93;99411.89;1717484;82;21843;-67
2021/09/23 01:12:23;;;;;;;4.40;3.30;;;;;;;7.37;81.81;99414.85;1717775;83;21019;-68
2021/09/23 01:14:52;;;;;;;4.40;3.00;;;;;;;7.31;81.94;99415.89;1717781;82;21039;-67
2021/09/23 01:17:18;;;;;;;7.03;3.33;;;;;;;7.30;82.13;99416.95;1715229;82;21052;-66
2021/09/23 01:19:50;;;;;;;4.00;3.00;;;;;;;7.35;82.04;99418.91;1710946;82;21043;-67
2021/09/23 01:22:17;;;;;;;4.42;3.17;;;;;;;7.35;82.02;99417.55;1711708;84;21035;-67
2021/09/23 01:24:48;;;;;;;4.47;2.50;;;;;;;7.34;82.09;99413.20;1704668;82;21067;-67
2021/09/23 01:27:15;;;;;;;4.22;3.10;;;;;;;7.39;81.94;99413.25;1703973;83;21585;-67
2021/09/23 01:29:42;;;;;;;5.15;3.35;;;;;;;7.38;81.87;99407.02;1721178;83;21597;-67
2021/09/23 01:32:11;;;;;;;3.95;2.83;;;;;;;7.32;81.94;99411.30;1661412;86;21956;-67
2021/09/23 01:34:43;;;;;;;4.58;2.90;;;;;;;7.31;81.91;99405.59;1694915;84;21126;-67
2021/09/23 01:37:08;;;;;;;5.35;3.08;;;;;;;7.35;81.79;99408.07;1696024;83;21055;-67
2021/09/23 01:39:36;;;;;;;7.62;3.62;;;;;;;7.36;81.80;99402.41;1676973;83;21098;-67
2021/09/23 01:42:05;;;;;;;5.50;3.67;;;;;;;7.32;81.86;99405.88;1726382;81;21561;-67
2021/09/23 01:44:33;;;;;;;4.75;2.87;;;;;;;7.24;82.09;99407.70;1725739;82;21039;-67
2021/09/23 01:47:03;;;;;;;5.50;3.72;;;;;;;7.26;82.18;99405.00;1725168;82;21066;-67
2021/09/23 01:49:32;;;;;;;4.72;3.33;;;;;;;7.33;82.20;99407.52;1723374;82;20987;-66
2021/09/23 01:51:58;;;;;;;4.75;3.47;;;;;;;7.37;82.10;99407.26;1725575;83;21018;-67
2021/09/23 01:54:27;;;;;;;5.42;3.83;;;;;;;7.37;82.21;99416.73;1725472;83;21565;-66
2021/09/23 01:56:55;;;;;;;5.20;3.40;;;;;;;7.33;82.35;99408.31;1700071;83;21019;-67
2021/09/23 01:59:23;;;;;;;5.80;3.47;;;;;;;7.37;82.43;99409.44;1682950;83;20962;-67
2021/09/23 02:01:51;;;;;;;5.10;3.40;;;;;;;7.42;82.18;99412.20;1689172;83;21039;-66
2021/09/23 02:04:18;;;;;;;6.05;3.25;;;;;;;7.45;82.11;99407.61;1726038;82;20943;-67
2021/09/23 02:06:46;;;;;;;7.60;3.85;;;;;;;7.47;82.02;99414.92;1725552;83;21621;-67
2021/09/23 02:09:14;;;;;;;5.28;3.75;;;;;;;7.45;82.07;99408.97;1725598;83;20995;-66
2021/09/23 02:11:40;;;;;;;;;;;;;;;7.42;82.15;99406.78;1709632;83;21008;-67
2021/09/23 02:14:07;;;;;;;4.93;3.17;;;;;;;7.40;82.10;99409.48;1724964;83;20103;-66
2021/09/23 02:16:36;;;;;;;6.85;3.22;;;;;;;7.39;82.10;99409.19;1694957;84;21334;-68
2021/09/23 02:19:05;;;;;;;4.25;2.95;;;;;;;7.43;81.98;99402.19;1693376;83;21420;-68
2021/09/23 02:21:33;;;;;;;6.45;3.60;;;;;;;7.43;81.91;99403.00;1668212;83;21553;-68
2021/09/23 02:24:00;;;;;;;6.87;4.00;;;;;;;7.36;81.94;99395.64;1687786;83;21019;-67
2021/09/23 02:26:26;;;;;;;6.30;3.42;;;;;;;7.34;81.97;99403.19;1723236;82;21574;-67
2021/09/23 02:28:53;;;;;;;;;;;;;;;7.38;81.90;99396.19;1720018;83;21004;-67
2021/09/23 02:31:19;;;;;;;5.58;3.55;;;;;;;7.39;81.76;99392.94;1695654;83;20121;-67
2021/09/23 02:33:46;;;;;;;4.45;3.65;;;;;;;7.33;81.76;99398.05;1698001;83;21561;-67
2021/09/23 02:36:12;;;;;;;;;;;;;;;7.26;81.95;99393.39;1720086;82;21058;-68
2021/09/23 02:38:38;;;;;;;5.12;3.60;;;;;;;7.25;82.10;99397.16;1689651;84;20141;-68
2021/09/23 02:41:06;;;;;;;5.80;3.58;;;;;;;7.26;82.12;99393.39;1687579;84;21115;-67
2021/09/23 02:43:33;;;;;;;6.50;3.98;;;;;;;7.25;81.88;99394.45;1717496;83;21746;-67
2021/09/23 02:45:59;;;;;;;3.83;2.98;;;;;;;7.18;82.11;99383.02;1729733;81;21230;-68
2021/09/23 02:48:26;;;;;;;4.45;3.25;;;;;;;7.16;82.22;99383.27;1732665;83;21018;-68
2021/09/23 02:50:52;;;;;;;4.42;3.45;;;;;;;7.21;82.16;99386.56;1732464;81;21620;-68
2021/09/23 02:53:18;;;;;;;4.17;3.22;;;;;;;7.24;82.09;99387.39;1726065;82;21031;-67
2021/09/23 02:55:44;;;;;;;4.60;3.70;;;;;;;7.29;82.13;99383.39;1715730;82;21546;-68
2021/09/23 02:58:11;;;;;;;7.72;4.12;;;;;;;7.32;82.03;99385.04;1717875;83;21027;-67
2021/09/23 03:00:37;;;;;;;7.87;3.95;;;;;;;7.28;82.17;99387.98;1705132;83;21613;-67
2021/09/23 03:03:04;;;;;;;6.80;3.40;;;;;;;7.26;82.15;99383.34;1693140;83;21004;-67
2021/09/23 03:05:30;;;;;;;3.85;2.90;;;;;;;7.28;82.06;99383.92;1715019;83;21051;-67
2021/09/23 03:07:56;;;;;;;;;;;;;;;7.33;81.89;99383.95;1718482;83;20975;-67
2021/09/23 03:10:23;;;;;;;4.70;3.22;;;;;;;7.26;81.91;99383.91;1683185;85;20113;-68
2021/09/23 03:12:49;;;;;;;6.12;4.00;;;;;;;7.15;82.44;99384.89;1698453;83;20995;-67
2021/09/23 03:15:16;;;;;;;6.47;4.20;;;;;;;7.19;82.58;99390.87;1689350;83;21037;-67
2021/09/23 03:17:44;;;;;;;5.20;3.67;;;;;;;7.28;82.31;99395.28;1689156;84;21046;-66
2021/09/23 03:20:13;;;;;;;5.10;3.45;;;;;;;7.27;82.10;99386.88;1695565;83;21118;-67
2021/09/23 03:22:42;;;;;;;4.95;3.92;;;;;;;7.26;82.09;99390.12;1714403;82;20976;-67
2021/09/23 03:25:09;;;;;;;5.65;3.60;;;;;;;7.10;82.27;99369.42;1717573;82;21071;-68
2021/09/23 03:27:36;;;;;;;6.20;3.70;;;;;;;7.20;82.31;99387.62;1707661;83;21138;-69
2021/09/23 03:30:03;;;;;;;5.70;3.52;;;;;;;7.23;82.27;99389.28;1721101;82;21557;-67
2021/09/23 03:32:29;;;;;;;7.50;4.08;;;;;;;7.28;82.10;99394.75;1715903;83;21039;-67
2021/09/23 03:34:56;;;;;;;6.53;4.20;;;;;;;7.20;82.15;99388.45;1712033;83;21062;-69
2021/09/23 03:37:22;;;;;;;;;;;;;;;7.19;82.27;99392.22;1732521;82;21037;-68
2021/09/23 03:39:49;;;;;;;6.47;3.80;;;;;;;7.23;82.24;99397.41;1727534;82;20107;-67
2021/09/23 03:42:17;;;;;;;5.03;3.50;;;;;;;7.21;82.24;99393.33;1708867;82;21067;-68
2021/09/23 03:44:43;;;;;;;4.92;3.50;;;;;;;7.17;82.34;99399.80;1712898;83;21106;-68
2021/09/23 03:47:09;;;;;;;4.97;3.12;;;;;;;7.18;82.48;99393.85;1723425;83;21621;-68
2021/09/23 03:49:36;;;;;;;8.13;4.03;;;;;;;7.25;82.49;99399.87;1724695;82;21058;-67
2021/09/23 03:52:03;;;;;;;4.85;3.60;;;;;;;7.29;82.41;99395.04;1715858;83;21929;-68
2021/09/23 03:54:31;;;;;;;7.72;4.03;;;;;;;7.29;82.37;99392.33;1684055;83;21055;-68
2021/09/23 03:56:59;;;;;;;5.85;4.33;;;;;;;7.27;82.58;99398.53;1723177;83;21050;-68
2021/09/23 03:59:26;;;;;;;5.37;4.03;;;;;;;7.27;82.56;99394.47;1707037;83;21609;-68
2021/09/23 04:01:54;;;;;;;6.37;4.30;;;;;;;7.31;82.38;99394.77;1717774;83;21063;-68
2021/09/23 04:04:20;;;;;;;;;;;;;;;7.34;82.29;99392.89;1726064;83;21098;-68
2021/09/23 04:06:47;;;;;;;6.45;4.40;;;;;;;;;;1684044;85;20109;-67
2021/09/23 04:09:16;;;;;;;5.90;4.17;;;;;;;7.15;82.64;99394.38;1718484;83;21083;-68
2021/09/23 04:11:44;;;;;;;4.97;3.70;;;;;;;7.16;82.69;99385.98;1658082;84;21031;-67
2021/09/23 04:14:11;;;;;;;5.37;3.55;;;;;;;7.22;82.38;99383.61;1677727;85;20991;-68
2021/09/23 04:16:38;;;;;;;7.50;3.70;;;;;;;7.22;82.33;99386.85;1710342;83;20963;-68
2021/09/23 04:19:07;;;;;;;4.53;3.35;;;;;;;7.23;82.41;99389.81;1723439;82;21549;-68
2021/09/23 04:21:37;;;;;;;5.37;3.70;;;;;;;7.28;82.19;99389.88;1723263;83;20999;-68
2021/09/23 04:24:07;;;;;;;4.83;3.30;;;;;;;7.24;82.39;99394.16;1723444;83;21102;-68
2021/09/23 04:26:37;;;;;;;5.10;3.52;;;;;;;7.26;82.47;99394.17;1721699;82;21012;-68
2021/09/23 04:29:03;;;;;;;;;;;;;;;7.34;82.22;99392.89;1719883;83;21537;-68
2021/09/23 04:31:30;;;;;;;4.53;3.33;;;;;;;7.33;82.23;99396.12;1700945;83;20132;-68
2021/09/23 04:33:56;;;;;;;5.47;2.95;;;;;;;7.20;82.57;99397.10;1700347;84;21046;-68
2021/09/23 04:36:24;;;;;;;5.55;3.02;;;;;;;7.21;82.57;99397.39;1723277;83;21063;-67
2021/09/23 04:38:52;;;;;;;3.55;2.58;;;;;;;7.29;82.49;99398.28;1730183;82;21095;-68
2021/09/23 04:41:19;;;;;;;3.50;2.40;;;;;;;7.37;82.42;99401.84;1730856;83;20997;-68
2021/09/23 04:43:48;;;;;;;3.52;2.55;;;;;;;7.39;82.29;99399.71;1730621;82;21064;-68
2021/09/23 04:46:21;;;;;;;4.58;2.60;;;;;;;7.36;82.51;99397.53;1730570;82;21035;-68
2021/09/23 04:48:50;;;;;;;4.05;2.70;;;;;;;7.39;82.42;99399.18;1727680;82;21078;-67
2021/09/23 04:51:21;;;;;;;4.28;2.62;;;;;;;7.41;82.17;99404.31;1730954;83;21066;-68
2021/09/23 04:53:48;;;;;;;4.87;2.55;;;;;;;7.42;82.11;99398.66;1730699;82;21062;-67
2021/09/23 04:56:15;;;;;;;3.70;2.50;;;;;;;7.46;82.11;99405.19;1730772;83;21115;-68
2021/09/23 04:58:41;;;;;;;3.87;2.90;;;;;;;7.48;82.13;99404.38;1728804;82;21018;-68
2021/09/23 05:01:09;;;;;;;4.62;3.20;;;;;;;7.46;82.18;99401.13;1712292;83;21051;-68
2021/09/23 05:03:35;;;;;;;4.33;2.65;;;;;;;7.45;82.21;99400.84;1719309;83;21536;-67
2021/09/23 05:06:01;;;;;;;4.10;2.80;;;;;;;7.52;82.20;99403.33;1711330;82;21062;-68
2021/09/23 05:08:29;;;;;;;3.27;2.65;;;;;;;7.60;82.11;99392.55;1703266;83;21007;-68
2021/09/23 05:10:56;;;;;;;3.42;2.42;;;;;;;7.65;81.90;99393.38;1720031;82;21471;-68
2021/09/23 05:13:23;;;;;;;3.60;2.05;;;;;;;7.66;81.88;99384.72;1732695;82;21029;-67
2021/09/23 05:15:51;;;;;;;3.42;2.37;;;;;;;7.65;81.77;99387.17;1743661;81;21026;-67
2021/09/23 05:18:19;;;;;;;3.67;2.22;;;;;;;7.66;81.91;99386.89;1721249;81;21035;-66
2021/09/23 05:20:45;;;;;;;4.00;2.22;;;;;;;7.76;81.72;99390.23;1712129;82;21039;-67
2021/09/23 05:23:11;;;;;;;4.62;2.95;;;;;;;7.83;81.63;99395.67;1708228;83;21498;-68
2021/09/23 05:25:38;;;;;;;4.83;3.15;;;;;;;7.89;81.90;99396.53;1714497;82;21134;-67
2021/09/23 05:28:04;;;;;;;3.75;2.30;;;;;;;8.01;81.90;99390.35;1711862;82;21514;-67
2021/09/23 05:30:31;;;;;;;4.72;2.77;;;;;;;8.13;81.50;99394.21;1722188;83;21111;-68
2021/09/23 05:32:57;;;;;;;3.40;2.55;;;;;;;8.23;81.33;99386.94;1724850;83;21684;-68
2021/09/23 05:35:24;;;;;;;4.83;2.87;;;;;;;8.28;81.15;99394.29;1688525;84;21090;-67
2021/09/23 05:37:50;;;;;;;3.50;2.20;;;;;;;8.27;81.08;99394.00;1698987;82;21019;-68
2021/09/23 05:40:17;;;;;;;3.52;1.98;;;;;;;8.30;80.99;99394.86;1686206;85;21090;-67
2021/09/23 05:42:44;;;;;;;2.67;1.87;;;;;;;8.32;80.37;99396.25;1726658;82;21066;-68
2021/09/23 05:45:12;;;;;;;2.67;1.50;;;;;;;8.32;80.20;99398.95;1725255;83;21047;-68
2021/09/23 05:47:39;;;;;;;3.08;1.95;;;;;;;8.33;79.96;99401.92;1725239;83;21058;-68
2021/09/23 05:50:08;;;;;;;2.30;1.60;;;;;;;8.31;80.00;99399.21;1723458;83;21055;-68
2021/09/23 05:52:35;;;;;;;4.28;2.00;;;;;;;8.31;80.05;99412.23;1717919;82;21042;-68
2021/09/23 05:55:01;;;;;;;3.45;2.00;;;;;;;8.34;79.36;99404.09;1725966;83;21043;-68
2021/09/23 05:57:34;;;;;;;3.77;2.10;;;;;;;8.22;79.21;99404.28;1731367;82;21023;-68
2021/09/23 06:00:10;;;;;;;2.45;1.47;;;;;;;8.22;79.61;99404.84;1702077;83;21114;-67
2021/09/23 06:02:43;;;;;;;2.65;1.67;;;;;;;8.31;79.29;99405.98;1706833;83;21113;-67
2021/09/23 06:05:11;;;;;;;2.58;1.67;;;;;;;8.27;79.50;99413.80;1717789;82;21094;-67
2021/09/23 06:07:37;;;;;;;2.42;1.32;;;;;;;8.30;79.61;99407.88;1702535;83;21050;-68
2021/09/23 06:10:05;;;;;;;2.67;1.75;;;;;;;8.34;79.18;99411.70;1710659;83;21651;-69
2021/09/23 06:12:33;;;;;;;2.85;1.67;;;;;;;8.37;79.14;99411.16;1711273;82;21011;-68
2021/09/23 06:15:01;;;;;;;2.80;1.42;;;;;;;8.48;79.22;99416.09;1707740;83;21672;-68
2021/09/23 06:17:28;;;;;;;4.33;1.92;;;;;;;8.53;78.94;99415.30;1661285;86;21089;-68
2021/09/23 06:19:56;;;;;;;2.10;1.40;;;;;;;8.47;78.66;99415.80;1695304;85;21056;-67
2021/09/23 06:22:22;;;;;;;1.80;1.40;;;;;;;8.46;78.68;99408.77;1705020;82;20979;-68
2021/09/23 06:24:49;;;;;;;2.50;1.40;;;;;;;8.45;78.41;99414.73;1718211;82;21106;-67
2021/09/23 06:27:17;;;;;;;2.40;1.50;;;;;;;8.43;77.96;99412.81;1695563;83;20990;-68
2021/09/23 06:29:44;;;;;;;2.52;1.50;;;;;;;8.35;77.99;99408.45;1697089;83;21078;-68
2021/09/23 06:32:13;;;;;;;1.90;1.15;;;;;;;8.31;78.20;99409.52;1725840;82;21464;-67
2021/09/23 06:34:41;;;;;;;3.02;1.50;;;;;;;8.35;78.32;99409.27;1723385;83;21545;-68
2021/09/23 06:37:08;;;;;;;2.08;1.15;;;;;;;8.48;78.67;99410.12;1725423;83;21031;-68
2021/09/23 06:39:35;;;;;;;1.60;1.10;;;;;;;8.63;78.54;99409.91;1725825;82;21019;-68
2021/09/23 06:42:02;;;;;;;3.10;1.20;;;;;;;8.75;78.25;99415.36;1725297;83;21027;-68
2021/09/23 06:44:30;;;;;;;2.90;1.52;;;;;;;8.75;77.56;99408.57;1726501;82;21640;-68
2021/09/23 06:46:56;;;;;;;1.60;0.88;;;;;;;8.69;77.73;99406.11;1727327;82;21024;-67
2021/09/23 06:49:25;;;;;;;2.20;1.32;;;;;;;8.69;77.81;99414.25;1725561;83;21055;-68
2021/09/23 06:51:54;;;;;;;2.25;1.10;;;;;;;8.74;77.75;99412.39;1711544;82;21075;-68
2021/09/23 06:54:21;;;;;;;1.55;1.10;;;;;;;8.86;77.87;99409.41;1707264;83;21517;-68
2021/09/23 06:56:48;;;;;;;2.02;0.90;;;;;;;8.95;77.64;99414.60;1695265;85;21031;-68
2021/09/23 06:59:15;;;;;;;1.30;0.70;;;;;;;8.94;77.26;99409.71;1698964;82;21308;-67
2021/09/23 07:01:44;;;;;;;1.22;0.60;;;;;;;8.92;76.88;99411.89;1680700;83;21020;-67
2021/09/23 07:04:15;;;;;;;2.30;0.98;;;;;;;8.89;76.32;99417.05;1692539;83;21040;-68
2021/09/23 07:07:00;;;;;;;1.22;0.80;;;;;;;8.85;76.18;99415.41;1715333;83;21020;-68
2021/09/23 07:09:28;;;;;;;1.80;1.07;;;;;;;8.82;76.24;99409.70;1712135;83;21598;-68
2021/09/23 07:12:00;;;;;;;1.47;0.85;;;;;;;8.76;76.57;99414.28;1726199;82;20995;-68
2021/09/23 07:14:27;;;;;;;2.77;1.20;;;;;;;8.82;76.54;99415.13;1699372;83;21079;-68
2021/09/23 07:16:54;;;;;;;1.70;1.17;;;;;;;8.85;76.01;99415.94;1666237;85;20986;-68
2021/09/23 07:19:21;;;;;;;3.08;1.75;;;;;;;8.80;75.94;99405.06;1725809;82;21090;-67
2021/09/23 07:21:48;;;;;;;2.30;1.30;;;;;;;8.81;76.04;99402.09;1707203;83;21015;-68
2021/09/23 07:24:15;;;;;;;1.98;1.10;;;;;;;8.97;76.70;99401.56;1724848;82;21007;-68
2021/09/23 07:26:43;;;;;;;5.15;1.10;;;;;;;9.19;76.43;99404.03;1695064;84;21634;-68
2021/09/23 07:29:14;;;;;;;1.55;0.90;;;;;;;9.27;76.16;99403.50;1632784;86;21079;-67
2021/09/23 07:31:39;;;;;;;1.42;0.80;;;;;;;9.37;75.59;99408.39;1692754;84;21063;-67
2021/09/23 07:34:05;;;;;;;;;;;;;;;9.40;75.27;99407.03;1697245;81;21034;-67
2021/09/23 07:36:50;;;;;;;3.72;1.10;;;;;;;9.39;74.72;99406.21;1732255;83;20107;-66
2021/09/23 07:39:18;;;;;;;2.02;1.17;;;;;;;9.28;74.59;99405.94;1710579;82;21017;-67
2021/09/23 07:41:45;;;;;;;1.70;1.20;;;;;;;9.25;73.95;99408.38;1701584;83;21553;-67
2021/09/23 07:44:14;;;;;;;2.95;1.25;;;;;;;9.20;73.42;99401.06;1723029;83;21187;-67
2021/09/23 07:46:42;;;;;;;4.60;2.33;;;;;;;9.10;73.73;99407.02;1719607;83;20951;-67
2021/09/23 07:49:08;;;;;;;2.02;1.37;;;;;;;9.01;73.71;99405.38;1676838;85;21015;-66
2021/09/23 07:51:35;;;;;;;;;;;;;;;9.01;73.97;99409.45;1716804;83;21451;-67
2021/09/23 07:54:01;;;;;;;2.92;1.70;;;;;;;8.98;73.82;99405.38;1662094;85;20140;-67
2021/09/23 07:56:30;;;;;;;2.10;1.30;;;;;;;8.83;74.25;99412.66;1685229;83;21554;-67
2021/09/23 07:58:59;;;;;;;1.95;1.10;;;;;;;8.84;74.55;99412.95;1723380;83;21348;-68
2021/09/23 08:01:25;;;;;;;11.22;6.17;;;;;;;8.87;74.41;99405.62;1660644;85;21047;-67
2021/09/23 08:03:54;;;;;;;2.42;1.52;;;;;;;8.91;74.48;99408.89;1704178;82;21109;-68
2021/09/23 08:06:22;;;;;;;3.70;2.40;;;;;;;8.93;74.65;99405.89;1712534;83;21000;-67
2021/09/23 08:08:49;;;;;;;3.72;1.90;;;;;;;8.93;74.91;99409.97;1725420;83;21893;-67
2021/09/23 08:11:15;;;;;;;;;;;;;;;8.93;74.78;99404.00;1689088;83;21038;-67
2021/09/23 08:13:44;;;;;;;2.60;1.37;;;;;;;8.94;74.94;99402.92;1707787;83;20146;-67
2021/09/23 08:16:12;;;;;;;2.62;1.47;;;;;;;8.93;75.03;99401.82;1707762;83;21609;-67
2021/09/23 08:18:56;;;;;;;2.05;1.30;;;;;;;8.90;75.09;99397.75;1646753;84;21615;-67
2021/09/23 08:21:36;;;;;;;2.47;1.37;;;;;;;8.81;75.37;99402.09;1710124;82;21167;-68
2021/09/23 08:24:04;;;;;;;2.92;1.20;;;;;;;8.82;75.53;99400.98;1730717;83;21042;-67
2021/09/23 08:26:32;;;;;;;2.30;1.20;;;;;;;8.88;75.78;99401.30;1707931;83;20995;-67
2021/09/23 08:28:59;;;;;;;2.85;1.32;;;;;;;9.02;75.88;99388.01;1697573;83;21584;-67
2021/09/23 08:31:25;;;;;;;1.80;1.20;;;;;;;9.09;75.77;99385.84;1720021;82;21066;-66
2021/09/23 08:33:54;;;;;;;4.65;2.08;;;;;;;9.13;75.85;99392.91;1711412;82;21584;-68
2021/09/23 08:36:21;;;;;;;3.20;1.47;;;;;;;9.12;75.47;99370.90;1737887;81;21081;-67
2021/09/23 08:38:50;;;;;;;3.50;1.62;;;;;;;9.27;74.68;99388.03;1733377;82;21038;-66
2021/09/23 08:41:17;;;;;;;3.05;1.40;;;;;;;9.26;74.99;99388.28;1719762;81;21082;-67
2021/09/23 08:43:43;;;;;;;;;;;;;;;9.34;75.39;99388.56;1698094;84;21027;-67
2021/09/23 08:46:10;;;;;;;3.45;1.45;;;;;;;9.48;74.79;99384.75;1677509;85;20109;-67
2021/09/23 08:48:37;;;;;;;4.03;1.65;;;;;;;9.46;74.94;99380.94;1683942;83;21208;-68
2021/09/23 08:51:04;;;;;;;3.02;2.00;;;;;;;9.46;74.52;99387.73;1737618;81;21392;-67
2021/09/23 08:53:31;;;;;;;3.22;1.02;;;;;;;9.44;74.09;99385.84;1738142;82;21072;-67
2021/09/23 08:55:58;;;;;;;5.00;1.32;;;;;;;9.38;73.64;99381.51;1734614;81;21062;-67
2021/09/23 08:58:25;;;;;;;3.60;1.20;;;;;;;9.24;73.72;99385.04;1680505;83;21026;-68
2021/09/23 09:01:09;;;;;;;3.98;1.60;;;;;;;9.09;73.88;99384.48;1707149;82;21150;-67
2021/09/23 09:04:02;;;;;;;4.75;2.25;;;;;;;9.05;74.05;99386.11;1665456;84;21085;-68
2021/09/23 09:06:36;;;;;;;4.97;2.17;;;;;;;8.96;74.36;99384.45;1631830;82;21039;-67
2021/09/23 09:09:19;;;;;;;5.45;2.52;;;;;;;8.92;74.78;99384.75;1723022;83;21029;-67
2021/09/23 09:11:46;;;;;;;5.58;2.40;;;;;;;8.89;74.99;99385.83;1694587;83;21015;-68
2021/09/23 09:14:29;;;;;;;4.83;2.55;;;;;;;8.76;75.09;99385.78;1725442;82;21051;-66
2021/09/23 09:17:04;;;;;;;4.45;2.02;;;;;;;8.73;75.18;99383.61;1728069;82;21490;-67
2021/09/23 09:19:51;;;;;;;4.65;2.33;;;;;;;8.70;75.48;99385.51;1710965;81;21553;-68
2021/09/23 09:22:20;;;;;;;3.92;2.47;;;;;;;8.76;76.00;99376.28;1738200;82;21518;-68
2021/09/23 09:24:55;;;;;;;3.00;1.80;;;;;;;8.89;76.58;99379.04;1738112;81;21058;-67
2021/09/23 09:27:39;;;;;;;3.60;1.92;;;;;;;9.06;77.07;99367.92;1737021;82;21517;-67
2021/09/23 09:30:12;;;;;;;6.35;2.27;;;;;;;9.26;77.04;99377.42;1714732;82;21070;-68
2021/09/23 09:32:50;;;;;;;2.25;1.40;;;;;;;9.45;76.17;99369.83;1713538;82;20950;-67
2021/09/23 09:35:19;;;;;;;1.57;1.00;;;;;;;9.60;76.30;99362.74;1742834;81;21097;-67
2021/09/23 09:37:48;;;;;;;1.82;0.88;;;;;;;9.86;76.33;99367.84;1731649;82;20981;-67
2021/09/23 09:40:19;;;;;;;3.65;0.82;;;;;;;10.12;75.67;99369.13;1713745;82;21593;-67
2021/09/23 09:42:49;;;;;;;1.05;0.55;;;;;;;10.30;74.63;99365.28;1718282;82;21006;-67
2021/09/23 09:45:23;;;;;;;0.80;0.50;;;;;;;10.39;74.47;99373.66;1710669;83;21062;-67
2021/09/23 09:47:53;;;;;;;0.90;0.50;;;;;;;10.46;73.87;99368.73;1663264;85;21051;-68
2021/09/23 09:50:37;;;;;;;1.22;0.82;;;;;;;10.49;72.20;99378.51;1675158;83;21034;-67
2021/09/23 09:53:07;;;;;;;3.40;0.60;;;;;;;10.33;71.08;99371.52;1685992;83;21046;-67
2021/09/23 09:55:43;;;;;;;0.95;0.57;;;;;;;10.13;71.47;99368.83;1727612;82;21026;-67
2021/09/23 09:58:13;;;;;;;1.00;0.50;;;;;;;10.08;71.11;99367.50;1709587;83;20960;-67
2021/09/23 10:00:41;;;;;;;1.17;0.60;;;;;;;10.06;71.29;99370.24;1724148;82;21106;-67
2021/09/23 10:03:08;;;;;;;1.02;0.60;;;;;;;10.11;71.24;99372.39;1721718;82;21003;-67
2021/09/23 10:05:35;;;;;;;1.60;0.95;;;;;;;10.13;71.22;99374.27;1727822;82;21114;-67
2021/09/23 10:08:05;;;;;;;1.90;1.05;;;;;;;10.13;70.53;99382.43;1708136;82;21571;-67
2021/09/23 10:10:33;;;;;;;5.92;3.00;;;;;;;10.08;70.13;99374.30;1701324;83;21094;-67
2021/09/23 10:13:03;;;;;;;2.40;0.98;;;;;;;10.14;70.25;99372.37;1713492;82;21015;-67
2021/09/23 10:15:30;;;;;;;20.48;14.63;;;;;;;10.22;70.46;99378.09;1713924;82;21625;-67
2021/09/23 10:18:01;;;;;;;1.80;0.90;;;;;;;10.27;70.24;99380.77;1721695;83;21044;-68
2021/09/23 10:20:28;;;;;;;1.00;0.50;;;;;;;10.15;69.36;99376.75;1721086;83;21042;-67
2021/09/23 10:22:56;;;;;;;1.70;0.62;;;;;;;9.93;69.79;99381.14;1679916;83;21058;-67
2021/09/23 10:25:30;;;;;;;1.00;0.53;;;;;;;9.83;70.17;99379.27;1713507;82;21099;-67
2021/09/23 10:28:00;;;;;;;1.10;0.75;;;;;;;9.80;69.82;99381.72;1737326;82;21058;-67
2021/09/23 10:30:35;;;;;;;1.62;1.00;;;;;;;9.66;70.08;99390.17;1709653;83;21533;-67
2021/09/23 10:33:03;;;;;;;1.10;0.70;;;;;;;9.47;70.53;99381.22;1683779;83;21035;-67
2021/09/23 10:35:30;;;;;;;2.10;1.00;;;;;;;9.39;71.00;99386.38;1706673;83;21114;-67
2021/09/23 10:38:04;;;;;;;2.15;0.80;;;;;;;9.38;71.14;99380.16;1723367;83;21024;-68
2021/09/23 10:40:32;;;;;;;1.30;0.80;;;;;;;9.30;71.52;99375.80;1723176;83;21050;-67
2021/09/23 10:43:42;;;;;;;1.87;0.90;;;;;;;9.25;71.86;99380.67;1818989;79;22869;-66
2021/09/23 10:46:11;;;;;;;2.67;0.93;;;;;;;9.19;72.15;99387.20;1775223;80;21615;-67
2021/09/23 10:48:46;;;;;;;3.83;1.20;;;;;;;9.22;72.27;99382.58;1725380;82;21544;-66
2021/09/23 10:51:16;;;;;;;1.85;1.10;;;;;;;9.25;72.17;99384.75;1760685;80;21069;-66
2021/09/23 10:53:56;;;;;;;1.85;0.93;;;;;;;9.27;72.63;99383.95;1761345;81;21009;-67
2021/09/23 10:56:23;;;;;;;2.17;0.80;;;;;;;9.36;72.80;99380.12;1761555;80;21083;-68
2021/09/23 10:58:51;;;;;;;1.70;0.90;;;;;;;9.47;72.46;99381.76;1761464;81;20994;-68
2021/09/23 11:01:22;;;;;;;1.72;0.95;;;;;;;9.47;72.20;99374.42;1761313;80;21119;-68
2021/09/23 11:03:51;;;;;;;2.47;1.27;;;;;;;9.39;71.93;99380.94;1761318;81;21568;-68
2021/09/23 11:06:18;;;;;;;2.27;1.10;;;;;;;9.28;71.76;99382.84;1760985;80;21069;-67
2021/09/23 11:08:47;;;;;;;3.35;1.20;;;;;;;9.21;71.77;99380.16;1761091;81;21473;-67
2021/09/23 11:11:15;;;;;;;2.37;1.22;;;;;;;9.21;72.12;99381.52;1761311;80;21603;-68
2021/09/23 11:13:42;;;;;;;4.35;1.37;;;;;;;9.15;72.49;99382.58;1761191;81;21507;-68
2021/09/23 11:16:10;;;;;;;;;;;;;;;9.14;72.59;99379.61;1757754;80;21021;-69
2021/09/23 11:18:40;;;;;;;2.67;1.07;;;;;;;9.15;72.48;99375.24;1706337;81;20136;-71
2021/09/23 11:21:08;;;;;;;1.62;0.80;;;;;;;9.14;72.75;99374.97;1761436;80;21058;-74
2021/09/23 11:23:37;;;;;;;1.30;0.80;;;;;;;9.19;72.81;99374.98;1731964;81;21030;-74
2021/09/23 11:26:05;;;;;;;3.15;1.77;;;;;;;9.20;72.96;99378.52;1732791;81;21088;-71
2021/09/23 11:28:33;;;;;;;2.00;1.30;;;;;;;9.22;72.83;99374.97;1753665;81;21094;-71
2021/09/23 11:31:00;;;;;;;2.45;1.10;;;;;;;9.26;72.95;99380.14;1761203;80;21043;-73
2021/09/23 11:33:29;;;;;;;2.65;1.30;;;;;;;9.35;72.89;99380.67;1732099;81;21016;-74
2021/09/23 11:35:57;;;;;;;1.90;1.20;;;;;;;9.36;72.70;99380.95;1744211;80;20966;-73
2021/09/23 11:38:25;;;;;;;1.50;1.00;;;;;;;9.29;72.98;99386.38;1731634;81;20998;-72
2021/09/23 11:40:55;;;;;;;1.98;1.07;;;;;;;9.28;73.21;99380.12;1761046;80;20997;-73
2021/09/23 11:43:30;;;;;;;2.62;1.70;;;;;;;9.30;73.18;99383.41;1761373;81;21073;-72
2021/09/23 11:45:59;;;;;;;3.05;1.70;;;;;;;9.32;73.47;99383.94;1730495;81;21034;-71
2021/09/23 11:48:30;;;;;;;10.08;6.15;;;;;;;9.32;73.89;99376.33;1678252;83;21518;-69
2021/09/23 11:51:03;;;;;;;4.35;2.77;;;;;;;9.35;74.13;99372.52;1736775;81;21574;-71